Terminal Aerodrome Forecast
Issued by NWS Twin Cities, MN

Home | Current Version | Previous Version | Text Only | Print | Product List | Glossary On
Versions: 1 2 3 4 5 6 7 8 9 10 11 12 13 14 15 16 17 18 19 20 21
093
FTUS43 KMPX 241734
TAFEAU
TAF
KEAU 241734Z 2418/2518 29011G18KT P6SM SCT030 BKN120 BKN200
     FM250100 27007KT P6SM SCT120 BKN200
     FM250300 27003KT P6SM SKC
     FM251500 29008KT P6SM FEW040=

USA.gov is the U.S. government's official web portal to all federal, state and local government web resources and services.